Buxhansa — A8TQ5 — position and weather

sailwx.info

Track history (hours):
 
Tides and Currents Weather Stations Pressure Air Temp Water Temp Dewpoint Dewpoint Depression Visibility Wind Speed Wind Dir Waves Ship Positions

Buxhansa

Last reported at 2017-Nov-30 21:30 UTC. Time now 2017-Dec-13 03:44 UTC.
Position S 29°15' E 031°54'.
Warning: this ship's position is 12 days out of date.

Length 208 m; draft 10 m.

Type: Ship (hazmat cat C). MMSI: 636091849.

Date/timePositionNaut miles runAvg speedWind from/ knotsBaromVisibWave heightAir tempDewpointWater temp
2017-Nov-30 21:30S 29°15' E 031°54'815.6
2017-Nov-30 21:00S 29°20' E 031°48'815.6
2017-Nov-30 20:30S 29°25' E 031°41'815.9
2017-Nov-30 20:00S 29°31' E 031°34'816.3
2017-Nov-30 19:31S 29°36' E 031°27'816.2
2017-Nov-30 19:01S 29°42' E 031°20'815.8
2017-Nov-30 18:30S 29°48' E 031°15'714.5
2017-Nov-30 18:00S 29°51' E 031°07'4 9.0
2017-Nov-30 17:31S 29°52' E 031°02'1 1.2
2017-Nov-30 17:00S 29°53' E 031°01'0 0.0
2017-Nov-30 16:29S 29°53' E 031°01'0 0.0
2017-Nov-30 15:59S 29°53' E 031°01'0 0.0
2017-Nov-30 15:29S 29°53' E 031°01'0 0.0
2017-Nov-30 14:56S 29°53' E 031°01'0 0.0
2017-Nov-30 14:28S 29°53' E 031°01'0 0.0
2017-Nov-30 13:58S 29°53' E 031°01'0 0.0
2017-Nov-30 13:28S 29°53' E 031°01'0 0.0
2017-Nov-30 12:58S 29°53' E 031°01'0 0.0
2017-Nov-30 12:28S 29°53' E 031°01'0 0.0
2017-Nov-30 12:00S 29°53' E 031°01'0 0.0
2017-Nov-30 11:30S 29°53' E 031°01'0 0.0
2017-Nov-30 11:00S 29°53' E 031°01'0 0.0
2017-Nov-30 10:30S 29°53' E 031°01'0 0.0
2017-Nov-30 09:59S 29°53' E 031°01'0 0.0
2017-Nov-30 09:29S 29°53' E 031°01'0 0.0
2017-Nov-30 08:56S 29°53' E 031°01'0 0.0
2017-Nov-30 08:29S 29°53' E 031°01'0 0.0
2017-Nov-30 07:59S 29°53' E 031°01'0 0.0
2017-Nov-30 07:28S 29°53' E 031°01'0 0.0
2017-Nov-30 06:58S 29°53' E 031°01'0 0.0
2017-Nov-30 06:28S 29°53' E 031°01'0 0.0
2017-Nov-30 05:46S 29°53' E 031°01'0 0.0
2017-Nov-30 05:28S 29°53' E 031°01'0 0.0
2017-Nov-30 04:57S 29°53' E 031°01'0 0.0
2017-Nov-30 04:30S 29°53' E 031°01'0 0.0
2017-Nov-30 04:00S 29°53' E 031°01'0 0.0
2017-Nov-30 03:27S 29°53' E 031°01'0 0.0
2017-Nov-30 02:56S 29°53' E 031°01'0 0.0
2017-Nov-30 02:29S 29°53' E 031°01'0 0.0
2017-Nov-30 01:59S 29°53' E 031°01'0 0.0
2017-Nov-30 01:29S 29°53' E 031°01'0 0.0
2017-Nov-30 00:59S 29°53' E 031°01'0 0.0
2017-Nov-30 00:28S 29°53' E 031°01'0 0.0
2017-Nov-29 23:58S 29°53' E 031°01'0 0.0
2017-Nov-29 23:28S 29°53' E 031°01'0 0.1
2017-Nov-29 23:00S 29°53' E 031°01'1 1.8
2017-Nov-29 22:30S 29°53' E 031°02'3 7.0
2017-Nov-29 22:00S 29°50' E 031°05'2 4.4
2017-Nov-29 21:31S 29°49' E 031°07'0 0.9
2017-Nov-29 21:01S 29°48' E 031°07'0 1.0
2017-Nov-29 20:31S 29°49' E 031°06'0 0.6
2017-Nov-29 20:01S 29°49' E 031°06'3 5.2
2017-Nov-29 19:30S 29°47' E 031°08'4 7.4
2017-Nov-29 18:59S 29°44' E 031°11'0 0.2
2017-Nov-29 18:29S 29°44' E 031°11'0 0.0
2017-Nov-29 17:59S 29°44' E 031°11'0 0.0
2017-Nov-29 17:28S 29°44' E 031°11'0 0.0
2017-Nov-29 16:58S 29°44' E 031°11'0 0.0
2017-Nov-29 16:28S 29°44' E 031°11'0 0.0
2017-Nov-29 15:58S 29°44' E 031°11'0 0.0
2017-Nov-29 15:31S 29°44' E 031°11'0 0.0
2017-Nov-29 15:00S 29°44' E 031°11'0 0.0
2017-Nov-29 14:30S 29°44' E 031°11'0 0.0
2017-Nov-29 14:00S 29°44' E 031°11'0 0.0
2017-Nov-29 13:30S 29°44' E 031°11'0 0.0
2017-Nov-29 12:59S 29°44' E 031°11'0 0.0
2017-Nov-29 12:29S 29°44' E 031°11'0 0.0
2017-Nov-29 11:59S 29°44' E 031°11'0 0.2
2017-Nov-29 11:30S 29°44' E 031°11'1 2.4
2017-Nov-29 11:00S 29°44' E 031°12'5 9.2
2017-Nov-29 10:31S 29°48' E 031°13'4 7.5
2017-Nov-29 10:01S 29°45' E 031°16'816.3
2017-Nov-29 09:31S 29°39' E 031°22'816.3
2017-Nov-29 09:00S 29°34' E 031°29'816.2
2017-Nov-29 08:31S 29°29' E 031°36'816.3
2017-Nov-29 08:01S 29°24' E 031°44'3317.4
2017-Nov-29 06:06S 29°03' E 032°13'  
Track history (hours):
 
Tides and Currents Weather Stations Pressure Air Temp Water Temp Dewpoint Dewpoint Depression Visibility Wind Speed Wind Dir Waves Ship Positions

Buxhansa

Last reported at 2017-Nov-30 21:30 UTC. Time now 2017-Dec-13 03:44 UTC.
Position S 29°15' E 031°54'.
Warning: this ship's position is 12 days out of date.

Length 208 m; draft 10 m.

Type: Ship (hazmat cat C). MMSI: 636091849.

Date/timePositionNaut miles runAvg speedWind from/ knotsBaromVisibWave heightAir tempDewpointWater temp
2017-Nov-30 21:30S 29°15' E 031°54'815.6
2017-Nov-30 21:00S 29°20' E 031°48'815.6
2017-Nov-30 20:30S 29°25' E 031°41'815.9
2017-Nov-30 20:00S 29°31' E 031°34'816.3
2017-Nov-30 19:31S 29°36' E 031°27'816.2
2017-Nov-30 19:01S 29°42' E 031°20'815.8
2017-Nov-30 18:30S 29°48' E 031°15'714.5
2017-Nov-30 18:00S 29°51' E 031°07'4 9.0
2017-Nov-30 17:31S 29°52' E 031°02'1 1.2
2017-Nov-30 17:00S 29°53' E 031°01'0 0.0
2017-Nov-30 16:29S 29°53' E 031°01'0 0.0
2017-Nov-30 15:59S 29°53' E 031°01'0 0.0
2017-Nov-30 15:29S 29°53' E 031°01'0 0.0
2017-Nov-30 14:56S 29°53' E 031°01'0 0.0
2017-Nov-30 14:28S 29°53' E 031°01'0 0.0
2017-Nov-30 13:58S 29°53' E 031°01'0 0.0
2017-Nov-30 13:28S 29°53' E 031°01'0 0.0
2017-Nov-30 12:58S 29°53' E 031°01'0 0.0
2017-Nov-30 12:28S 29°53' E 031°01'0 0.0
2017-Nov-30 12:00S 29°53' E 031°01'0 0.0
2017-Nov-30 11:30S 29°53' E 031°01'0 0.0
2017-Nov-30 11:00S 29°53' E 031°01'0 0.0
2017-Nov-30 10:30S 29°53' E 031°01'0 0.0
2017-Nov-30 09:59S 29°53' E 031°01'0 0.0
2017-Nov-30 09:29S 29°53' E 031°01'0 0.0
2017-Nov-30 08:56S 29°53' E 031°01'0 0.0
2017-Nov-30 08:29S 29°53' E 031°01'0 0.0
2017-Nov-30 07:59S 29°53' E 031°01'0 0.0
2017-Nov-30 07:28S 29°53' E 031°01'0 0.0
2017-Nov-30 06:58S 29°53' E 031°01'0 0.0
2017-Nov-30 06:28S 29°53' E 031°01'0 0.0
2017-Nov-30 05:46S 29°53' E 031°01'0 0.0
2017-Nov-30 05:28S 29°53' E 031°01'0 0.0
2017-Nov-30 04:57S 29°53' E 031°01'0 0.0
2017-Nov-30 04:30S 29°53' E 031°01'0 0.0
2017-Nov-30 04:00S 29°53' E 031°01'0 0.0
2017-Nov-30 03:27S 29°53' E 031°01'0 0.0
2017-Nov-30 02:56S 29°53' E 031°01'0 0.0
2017-Nov-30 02:29S 29°53' E 031°01'0 0.0
2017-Nov-30 01:59S 29°53' E 031°01'0 0.0
2017-Nov-30 01:29S 29°53' E 031°01'0 0.0
2017-Nov-30 00:59S 29°53' E 031°01'0 0.0
2017-Nov-30 00:28S 29°53' E 031°01'0 0.0
2017-Nov-29 23:58S 29°53' E 031°01'0 0.0
2017-Nov-29 23:28S 29°53' E 031°01'0 0.1
2017-Nov-29 23:00S 29°53' E 031°01'1 1.8
2017-Nov-29 22:30S 29°53' E 031°02'3 7.0
2017-Nov-29 22:00S 29°50' E 031°05'2 4.4
2017-Nov-29 21:31S 29°49' E 031°07'0 0.9
2017-Nov-29 21:01S 29°48' E 031°07'0 1.0
2017-Nov-29 20:31S 29°49' E 031°06'0 0.6
2017-Nov-29 20:01S 29°49' E 031°06'3 5.2
2017-Nov-29 19:30S 29°47' E 031°08'4 7.4
2017-Nov-29 18:59S 29°44' E 031°11'0 0.2
2017-Nov-29 18:29S 29°44' E 031°11'0 0.0
2017-Nov-29 17:59S 29°44' E 031°11'0 0.0
2017-Nov-29 17:28S 29°44' E 031°11'0 0.0
2017-Nov-29 16:58S 29°44' E 031°11'0 0.0
2017-Nov-29 16:28S 29°44' E 031°11'0 0.0
2017-Nov-29 15:58S 29°44' E 031°11'0 0.0
2017-Nov-29 15:31S 29°44' E 031°11'0 0.0
2017-Nov-29 15:00S 29°44' E 031°11'0 0.0
2017-Nov-29 14:30S 29°44' E 031°11'0 0.0
2017-Nov-29 14:00S 29°44' E 031°11'0 0.0
2017-Nov-29 13:30S 29°44' E 031°11'0 0.0
2017-Nov-29 12:59S 29°44' E 031°11'0 0.0
2017-Nov-29 12:29S 29°44' E 031°11'0 0.0
2017-Nov-29 11:59S 29°44' E 031°11'0 0.2
2017-Nov-29 11:30S 29°44' E 031°11'1 2.4
2017-Nov-29 11:00S 29°44' E 031°12'5 9.2
2017-Nov-29 10:31S 29°48' E 031°13'4 7.5
2017-Nov-29 10:01S 29°45' E 031°16'816.3
2017-Nov-29 09:31S 29°39' E 031°22'816.3
2017-Nov-29 09:00S 29°34' E 031°29'816.2
2017-Nov-29 08:31S 29°29' E 031°36'816.3
2017-Nov-29 08:01S 29°24' E 031°44'3317.4
2017-Nov-29 06:06S 29°03' E 032°13'  

Dump ship's entire track history